Time;durP1;ratioP1;P1;durP2;ratioP2;P2;SDS_P1;SDS_P2;PMS_P1;PMS_P2;Temp;Humidity;BMP_temperature;BMP_pressure;BME280_temperature;BME280_humidity;BME280_pressure;Samples;Min_cycle;Max_cycle;Signal;HPM_P1;HPM_P2
2021/05/15 00:02:17;;;;;;;1.23;0.90;;;12.00;63.30;;;11.89;54.93;96991.31;5051104;28;20471;-59
2021/05/15 00:04:44;;;;;;;0.70;0.70;;;12.00;63.90;;;11.94;54.43;96996.91;5043855;28;20381;-57
2021/05/15 00:07:11;;;;;;;0.70;0.70;;;11.80;64.00;;;11.97;54.36;96994.72;5029178;28;20092;-59
2021/05/15 00:09:38;;;;;;;1.63;1.10;;;11.90;63.90;;;11.91;54.70;96991.97;5030473;28;20039;-59
2021/05/15 00:12:05;;;;;;;0.98;0.70;;;11.80;65.00;;;11.76;55.21;96998.09;5029966;28;20045;-58
2021/05/15 00:14:33;;;;;;;1.13;1.00;;;11.60;65.60;;;11.71;55.43;96997.84;5029577;28;20037;-59
2021/05/15 00:17:01;;;;;;;1.55;1.10;;;11.60;64.90;;;11.68;55.35;96986.72;5029729;28;20048;-58
2021/05/15 00:19:28;;;;;;;0.85;0.85;;;11.60;65.10;;;11.71;55.54;96995.19;5029496;28;20051;-59
2021/05/15 00:21:55;;;;;;;1.40;0.90;;;11.60;65.20;;;11.64;55.55;96994.25;5030388;28;20472;-57
2021/05/15 00:24:22;;;;;;;1.95;1.00;;;11.50;65.00;;;11.69;55.18;96993.69;5029012;28;20049;-56
2021/05/15 00:26:49;;;;;;;1.05;0.80;;;11.60;65.00;;;11.72;54.98;96983.47;5029060;28;20029;-58
2021/05/15 00:29:16;;;;;;;1.40;1.10;;;11.60;64.80;;;11.79;54.44;96988.91;5028396;28;20223;-58
2021/05/15 00:31:43;;;;;;;1.30;0.90;;;11.50;64.80;;;11.79;54.28;96981.75;5028285;28;20059;-59
2021/05/15 00:34:10;;;;;;;1.20;1.10;;;11.50;64.60;;;11.83;54.40;96984.88;5028570;28;20033;-59
2021/05/15 00:36:37;;;;;;;1.00;0.88;;;11.50;64.60;;;11.78;54.50;96988.06;5029582;28;20033;-59
2021/05/15 00:39:06;;;;;;;1.42;0.95;;;11.50;64.90;;;11.74;54.82;96980.63;5030466;28;20039;-58
2021/05/15 00:41:33;;;;;;;1.33;0.90;;;11.40;65.10;;;11.71;54.23;96981.84;5030192;28;20051;-59
2021/05/15 00:44:18;;;;;;;1.03;0.80;;;11.40;64.80;;;11.74;54.36;96984.13;5031924;28;20055;-58
2021/05/15 00:46:46;;;;;;;1.50;0.93;;;11.50;65.20;;;11.76;54.19;96979.44;5029320;28;20049;-56
2021/05/15 00:49:13;;;;;;;1.35;0.80;;;11.50;64.80;;;11.75;54.54;96984.97;5028554;28;20228;-57
2021/05/15 00:51:41;;;;;;;1.00;0.90;;;11.50;64.90;;;11.72;54.43;96980.00;5028003;28;20044;-59
2021/05/15 00:54:12;;;;;;;1.67;1.17;;;11.40;64.70;;;11.72;54.46;96974.66;5027912;28;20339;-57
2021/05/15 00:56:40;;;;;;;1.15;1.02;;;11.50;65.30;;;11.72;54.67;96970.16;5042199;28;20056;-59
2021/05/15 00:59:07;;;;;;;0.90;0.87;;;11.50;65.00;;;11.71;54.44;96970.31;5030304;28;20045;-58
2021/05/15 01:01:34;;;;;;;1.50;1.20;;;11.40;64.90;;;11.67;55.19;96980.56;5049815;28;20204;-59
2021/05/15 01:04:01;;;;;;;1.80;1.02;;;11.40;64.90;;;11.63;54.94;96973.91;5048905;28;20045;-59
2021/05/15 01:06:27;;;;;;;1.27;0.68;;;11.50;65.00;;;11.58;55.54;96974.47;5048253;28;20052;-59
2021/05/15 01:08:55;;;;;;;1.27;0.80;;;11.50;65.10;;;11.60;55.31;96975.13;5049386;28;20098;-59
2021/05/15 01:11:22;;;;;;;0.93;0.80;;;11.50;65.20;;;11.62;55.56;96974.94;5048973;28;20024;-59
2021/05/15 01:13:58;;;;;;;1.48;0.90;;;11.50;65.10;;;11.57;55.77;96970.16;5050407;28;20040;-59
2021/05/15 01:16:26;;;;;;;1.88;1.13;;;11.50;65.30;;;11.57;55.72;96974.66;5048262;28;20304;-58
2021/05/15 01:18:53;;;;;;;0.80;0.80;;;11.50;65.00;;;11.54;55.65;96975.03;5048722;28;20048;-59
2021/05/15 01:21:20;;;;;;;2.10;0.73;;;11.60;64.90;;;11.42;56.12;96967.50;5047863;28;20043;-59
2021/05/15 01:23:47;;;;;;;3.03;1.07;;;11.60;64.60;;;11.46;55.70;96973.28;5031602;28;20044;-59
2021/05/15 01:26:33;;;;;;;1.20;0.90;;;11.60;64.80;;;11.39;56.16;96978.50;5049049;28;20042;-59
2021/05/15 01:29:05;;;;;;;1.17;0.87;;;11.50;65.60;;;11.29;56.29;96972.63;5048612;28;20254;-59
2021/05/15 01:31:33;;;;;;;2.97;0.83;;;11.40;65.00;;;11.17;56.63;96969.56;5048532;28;20047;-59
2021/05/15 01:34:01;;;;;;;1.20;0.90;;;11.40;65.00;;;11.15;56.57;96968.94;5049741;28;20221;-59
2021/05/15 01:36:32;;;;;;;2.45;2.00;;;11.40;65.20;;;11.18;56.22;96970.41;5047724;28;20257;-59
2021/05/15 01:38:59;;;;;;;0.80;0.80;;;11.30;65.20;;;11.25;56.17;96963.34;5048934;28;20048;-59
2021/05/15 01:41:25;;;;;;;2.95;1.00;;;11.20;65.20;;;11.32;55.38;96974.94;5045539;28;20039;-59
2021/05/15 01:43:58;;;;;;;2.77;0.90;;;11.20;65.30;;;11.33;55.75;96963.25;5031652;28;20029;-59
2021/05/15 01:46:25;;;;;;;2.13;0.90;;;11.20;65.80;;;11.27;56.04;96971.16;5049286;28;20037;-59
2021/05/15 01:48:52;;;;;;;1.23;0.90;;;11.20;65.50;;;11.18;56.63;96968.56;5047863;28;20037;-59
2021/05/15 01:51:19;;;;;;;0.90;0.80;;;11.20;65.50;;;11.09;56.90;96975.00;5048055;28;20037;-58
2021/05/15 01:53:50;;;;;;;0.80;0.80;;;11.20;65.60;;;11.12;56.47;96969.28;5047167;28;20051;-59
2021/05/15 01:56:21;;;;;;;1.30;0.93;;;11.20;65.60;;;11.03;56.72;96957.88;5049094;28;20043;-58
2021/05/15 01:58:48;;;;;;;1.23;0.95;;;11.20;65.50;;;11.11;56.21;96970.31;5049717;28;20051;-59
2021/05/15 02:01:17;;;;;;;1.02;0.88;;;11.20;65.60;;;11.06;56.75;96969.19;5049924;28;20208;-59
2021/05/15 02:03:46;;;;;;;0.77;0.70;;;11.10;66.10;;;11.06;56.34;96962.03;5045974;28;20067;-58
2021/05/15 02:06:13;;;;;;;1.67;1.07;;;11.10;65.90;;;10.92;56.82;96955.66;5049086;28;20037;-59
2021/05/15 02:08:42;;;;;;;2.20;1.00;;;11.10;66.00;;;10.73;57.95;96959.63;5048765;28;20238;-59
2021/05/15 02:11:09;;;;;;;2.28;1.17;;;11.10;66.30;;;10.68;58.09;96958.50;5047819;28;20220;-59
2021/05/15 02:13:37;;;;;;;1.60;0.80;;;11.00;66.10;;;10.71;57.46;96955.50;5048992;28;20047;-58
2021/05/15 02:16:05;;;;;;;1.07;0.77;;;10.90;66.30;;;10.78;57.41;96953.78;5048788;28;20044;-59
2021/05/15 02:18:32;;;;;;;1.53;1.37;;;10.90;66.70;;;10.66;57.81;96942.72;5049187;28;20041;-60
2021/05/15 02:20:59;;;;;;;1.73;0.90;;;10.90;66.50;;;10.70;57.62;96952.03;5047373;28;20041;-59
2021/05/15 02:23:27;;;;;;;0.60;0.60;;;10.80;66.50;;;10.63;58.26;96940.44;5048949;28;20360;-60
2021/05/15 02:25:54;;;;;;;1.00;0.90;;;10.80;66.60;;;10.59;58.06;96947.94;5048276;28;20045;-59
2021/05/15 02:28:22;;;;;;;0.90;0.90;;;10.80;66.70;;;10.56;58.38;96945.63;5048879;28;20320;-59
2021/05/15 02:30:50;;;;;;;1.60;0.90;;;10.70;67.00;;;10.56;57.86;96934.97;5050222;28;20025;-59
2021/05/15 02:33:18;;;;;;;1.83;1.10;;;10.70;66.90;;;10.54;58.21;96944.16;5050141;28;20242;-60
2021/05/15 02:35:46;;;;;;;1.97;0.90;;;10.70;67.00;;;10.60;57.60;96938.97;5032292;28;20036;-59
2021/05/15 02:38:16;;;;;;;1.40;0.80;;;10.70;67.00;;;10.62;58.07;96944.94;5050171;28;20071;-60
2021/05/15 02:40:45;;;;;;;0.80;0.70;;;10.70;67.10;;;10.57;57.87;96938.47;5050672;28;20035;-60
2021/05/15 02:43:15;;;;;;;0.90;0.90;;;10.60;67.10;;;10.57;57.90;96931.31;5049885;28;20043;-59
2021/05/15 02:45:43;;;;;;;0.70;0.70;;;10.60;67.20;;;10.58;57.63;96924.97;5049438;28;20044;-60
2021/05/15 02:48:16;;;;;;;1.13;0.90;;;10.60;67.10;;;10.40;58.63;96940.44;5049012;28;20048;-59
2021/05/15 02:50:49;;;;;;;1.15;0.80;;;10.60;67.20;;;10.29;58.66;96932.81;5049445;28;20063;-60
2021/05/15 02:53:16;;;;;;;1.95;1.00;;;10.60;67.50;;;10.26;58.86;96936.69;5050203;28;20036;-59
2021/05/15 02:55:44;;;;;;;2.10;1.00;;;10.60;67.40;;;10.18;59.51;96931.41;5049943;28;20036;-59
2021/05/15 02:58:11;;;;;;;2.53;0.93;;;10.50;67.70;;;10.12;59.74;96919.66;5047896;28;20060;-60
2021/05/15 03:00:38;;;;;;;1.80;0.93;;;10.60;67.50;;;10.12;59.89;96922.31;5049227;28;20364;-59
2021/05/15 03:03:05;;;;;;;2.43;1.00;;;10.60;67.50;;;10.00;59.88;96929.84;5049157;28;20053;-59
2021/05/15 03:05:32;;;;;;;1.47;0.90;;;10.50;67.80;;;10.00;59.94;96926.34;5049955;28;20372;-59
2021/05/15 03:07:59;;;;;;;1.47;0.60;;;10.50;68.10;;;10.07;59.79;96921.16;5048945;28;20466;-59
2021/05/15 03:10:27;;;;;;;1.57;1.07;;;10.40;67.70;;;10.07;59.50;96929.97;5048942;28;20047;-55
2021/05/15 03:12:56;;;;;;;1.00;0.70;;;10.40;67.70;;;10.09;59.68;96929.81;5048525;28;20048;-59
2021/05/15 03:15:24;;;;;;;1.73;0.80;;;10.50;68.20;;;10.16;59.38;96914.81;5048128;28;20029;-59
2021/05/15 03:17:52;;;;;;;1.90;1.00;;;10.50;68.00;;;10.13;59.55;96923.13;5048461;28;20039;-59
2021/05/15 03:20:24;;;;;;;1.50;0.90;;;10.50;68.00;;;10.10;59.96;96921.66;5048431;28;20063;-60
2021/05/15 03:22:51;;;;;;;2.23;1.00;;;10.50;68.30;;;10.06;60.06;96917.66;5048744;28;20053;-61
2021/05/15 03:25:20;;;;;;;2.87;1.20;;;10.50;68.30;;;10.15;60.19;96916.63;5049627;28;20041;-60
2021/05/15 03:27:48;;;;;;;1.50;0.93;;;10.50;68.20;;;10.24;59.73;96925.38;5048539;28;20061;-60
2021/05/15 03:30:19;;;;;;;1.10;0.93;;;10.60;68.20;;;10.32;59.41;96922.69;5048764;28;20342;-61
2021/05/15 03:32:46;;;;;;;1.03;0.80;;;10.60;68.20;;;10.39;59.61;96914.81;5048596;28;20134;-61
2021/05/15 03:35:15;;;;;;;1.53;1.00;;;10.60;68.30;;;10.47;58.72;96913.94;5049079;28;20238;-61
2021/05/15 03:37:42;;;;;;;1.13;0.90;;;10.60;68.10;;;10.50;58.70;96909.06;5047886;28;20043;-61
2021/05/15 03:40:10;;;;;;;1.20;1.10;;;10.60;68.30;;;10.51;58.73;96918.72;5048559;28;20035;-61
2021/05/15 03:42:38;;;;;;;1.60;0.90;;;10.60;68.30;;;10.53;59.04;96915.91;5049622;28;20055;-59
2021/05/15 03:45:07;;;;;;;1.37;1.07;;;10.60;68.30;;;10.56;59.09;96921.66;5048613;28;20032;-60
2021/05/15 03:47:35;;;;;;;1.07;0.97;;;10.60;68.60;;;10.58;58.72;96921.50;5031168;28;20362;-60
2021/05/15 03:50:03;;;;;;;0.65;0.65;;;10.60;68.60;;;10.57;59.13;96922.50;5048958;28;20041;-61
2021/05/15 03:52:30;;;;;;;1.33;1.10;;;10.60;68.60;;;10.57;58.79;96922.50;5050533;28;20045;-60
2021/05/15 03:54:57;;;;;;;1.30;1.20;;;10.60;68.60;;;10.55;58.75;96919.22;5047446;28;20024;-61
2021/05/15 03:57:24;;;;;;;0.97;0.70;;;10.60;68.50;;;10.59;58.66;96909.84;5030074;28;20044;-61
2021/05/15 03:59:51;;;;;;;1.23;0.90;;;10.60;68.70;;;10.64;59.04;96902.13;5050143;28;20033;-61
2021/05/15 04:02:22;;;;;;;1.77;1.00;;;10.60;68.80;;;10.65;58.90;96911.78;5048502;28;20040;-60
2021/05/15 04:04:51;;;;;;;3.13;1.00;;;10.70;68.60;;;10.63;59.58;96913.81;5048686;28;20041;-60
2021/05/15 04:07:18;;;;;;;1.13;1.03;;;10.70;68.70;;;10.63;59.28;96911.97;5048284;28;20231;-61
2021/05/15 04:09:45;;;;;;;1.97;1.30;;;10.80;68.70;;;10.67;59.61;96911.63;5049252;28;20624;-61
2021/05/15 04:12:14;;;;;;;0.83;0.83;;;10.80;68.80;;;10.75;59.23;96912.38;5048133;28;20049;-61
2021/05/15 04:14:45;;;;;;;1.37;1.00;;;10.80;69.00;;;10.75;59.83;96907.03;5048029;28;20049;-60
2021/05/15 04:17:19;;;;;;;1.00;0.90;;;10.90;69.00;;;10.80;59.30;96910.00;5046605;28;20338;-60
2021/05/15 04:19:48;;;;;;;;;;;10.90;68.80;;;10.78;59.79;96903.22;5048221;28;20339;-61
2021/05/15 04:22:15;;;;;;;1.37;1.10;;;10.90;69.20;;;10.77;59.38;96912.19;5048657;28;20100;-61
2021/05/15 04:24:42;;;;;;;2.47;1.10;;;10.90;69.10;;;10.65;60.08;96917.13;5048499;28;20033;-60
2021/05/15 04:27:09;;;;;;;3.30;1.07;;;11.00;68.70;;;10.71;60.13;96919.06;5049737;28;20519;-61
2021/05/15 04:29:36;;;;;;;1.50;0.90;;;10.90;68.90;;;10.68;59.74;96922.06;5051858;28;20049;-61
2021/05/15 04:32:04;;;;;;;1.83;1.73;;;10.90;68.70;;;10.67;59.81;96912.44;5059286;22;20057;-45
2021/05/15 04:34:31;;;;;;;1.33;1.00;;;10.90;68.80;;;10.71;59.67;96911.06;5025601;28;20356;-45
2021/05/15 04:36:59;;;;;;;1.07;1.07;;;10.90;68.80;;;10.79;59.86;96913.66;5027649;28;20045;-46
2021/05/15 04:39:28;;;;;;;1.67;1.13;;;11.00;69.10;;;10.80;59.77;96915.31;5027225;28;20037;-45
2021/05/15 04:41:58;;;;;;;2.13;1.30;;;11.00;68.80;;;10.91;59.55;96915.88;5029288;28;20053;-46
2021/05/15 04:44:25;;;;;;;1.88;1.20;;;11.00;69.00;;;10.86;59.59;96928.91;5028197;28;20350;-46
2021/05/15 04:46:52;;;;;;;2.53;1.53;;;11.10;68.80;;;10.90;59.19;96923.06;5010623;28;20037;-45
2021/05/15 04:49:21;;;;;;;2.40;1.20;;;11.10;68.70;;;10.88;59.36;96924.25;5026179;28;20053;-45
2021/05/15 04:51:47;;;;;;;1.00;0.90;;;11.10;68.70;;;10.93;59.64;96924.53;5025808;28;20053;-46
2021/05/15 04:54:15;;;;;;;0.80;0.80;;;11.10;68.70;;;10.93;59.27;96917.34;5027178;28;20369;-45
2021/05/15 04:56:41;;;;;;;1.63;0.88;;;11.10;68.60;;;11.00;59.33;96926.28;5025770;28;20049;-47
2021/05/15 04:59:08;;;;;;;2.50;1.10;;;11.20;68.50;;;10.97;59.68;96926.66;5026995;28;20374;-47
2021/05/15 05:01:35;;;;;;;3.77;1.30;;;11.20;68.40;;;10.95;59.19;96923.34;5028879;28;20040;-46
2021/05/15 05:04:03;;;;;;;0.90;0.90;;;11.20;68.40;;;11.00;59.04;96914.81;5027696;28;20045;-48
2021/05/15 05:06:30;;;;;;;2.23;1.07;;;11.20;68.60;;;11.00;59.53;96922.78;5026988;28;20053;-45
2021/05/15 05:08:58;;;;;;;2.00;1.00;;;11.10;68.90;;;10.98;59.71;96925.63;5026191;28;20055;-45
2021/05/15 05:11:25;;;;;;;1.30;1.20;;;11.10;68.70;;;11.00;59.70;96918.28;5027171;28;20045;-45
2021/05/15 05:13:52;;;;;;;1.03;1.00;;;11.10;68.80;;;11.07;59.07;96920.22;5029234;28;20043;-46
2021/05/15 05:16:20;;;;;;;1.60;1.00;;;11.20;68.70;;;11.09;59.09;96920.88;5025033;28;20045;-46
2021/05/15 05:18:46;;;;;;;1.20;0.90;;;11.30;68.50;;;11.13;59.23;96925.66;5041351;28;20049;-45
2021/05/15 05:21:13;;;;;;;1.55;1.00;;;11.30;68.50;;;11.14;59.21;96921.97;5026132;28;20061;-46
2021/05/15 05:23:40;;;;;;;2.00;1.20;;;11.40;68.30;;;11.18;59.69;96917.13;5026023;28;20056;-45
2021/05/15 05:26:07;;;;;;;1.20;0.90;;;11.40;68.30;;;11.20;59.21;96915.91;5025916;28;20335;-45
2021/05/15 05:28:35;;;;;;;0.85;0.82;;;11.50;68.20;;;11.25;59.05;96919.88;5025141;28;20047;-45
2021/05/15 05:31:05;;;;;;;1.33;0.85;;;11.50;67.80;;;11.33;59.32;96911.81;5026073;28;20049;-46
2021/05/15 05:33:33;;;;;;;2.78;0.90;;;11.60;67.90;;;11.37;59.14;96910.41;5027453;28;20057;-47
2021/05/15 05:36:00;;;;;;;1.45;1.08;;;11.60;67.70;;;11.38;59.28;96912.91;5025611;28;20044;-45
2021/05/15 05:38:27;;;;;;;2.55;1.20;;;11.70;67.90;;;11.45;59.26;96910.31;5025447;28;20227;-46
2021/05/15 05:40:54;;;;;;;1.23;1.00;;;11.70;68.10;;;11.53;58.70;96912.88;5026392;28;20045;-45
2021/05/15 05:43:21;;;;;;;2.00;1.08;;;11.70;68.00;;;11.56;59.15;96912.53;5026737;28;20064;-44
2021/05/15 05:45:48;;;;;;;3.70;1.52;;;11.80;67.80;;;11.67;58.72;96902.38;5025590;28;20374;-47
2021/05/15 05:48:18;;;;;;;1.52;1.20;;;11.90;67.80;;;11.74;58.40;96900.63;5026659;28;20049;-44
2021/05/15 05:50:46;;;;;;;1.08;1.00;;;12.00;67.40;;;11.80;58.00;96907.88;5024869;28;20231;-43
2021/05/15 05:53:13;;;;;;;3.63;1.42;;;12.00;67.10;;;11.90;58.18;96913.78;5026359;28;20369;-45
2021/05/15 05:55:40;;;;;;;5.68;1.90;;;12.10;67.10;;;11.95;58.23;96915.91;5025732;28;20037;-46
2021/05/15 05:58:07;;;;;;;2.70;1.55;;;12.20;66.90;;;11.96;58.00;96910.38;5024976;28;20354;-44
2021/05/15 06:00:34;;;;;;;2.67;1.25;;;12.20;66.50;;;11.99;58.30;96896.66;5026413;28;20056;-46
2021/05/15 06:03:01;;;;;;;2.10;1.30;;;12.30;66.70;;;12.01;57.62;96901.81;5025985;28;20614;-44
2021/05/15 06:05:28;;;;;;;2.30;1.20;;;12.30;66.30;;;12.08;58.00;96896.53;5025903;28;20034;-44
2021/05/15 06:08:08;;;;;;;2.25;1.30;;;12.30;66.60;;;12.15;57.52;96900.91;5025291;28;20307;-44
2021/05/15 06:10:37;;;;;;;1.08;0.93;;;12.40;66.40;;;11.99;57.29;96895.84;5026514;28;20033;-44
2021/05/15 06:13:05;;;;;;;2.08;1.40;;;12.50;65.30;;;12.12;57.54;96895.16;5025755;28;20052;-44
2021/05/15 06:15:32;;;;;;;2.35;1.77;;;12.40;65.70;;;12.18;57.46;96895.22;5041386;28;20053;-45
2021/05/15 06:17:59;;;;;;;2.17;1.20;;;12.40;65.90;;;12.27;57.06;96895.09;5025051;28;20063;-44
2021/05/15 06:20:26;;;;;;;2.13;1.42;;;12.50;65.70;;;12.30;57.17;96895.53;5024847;28;20049;-43
2021/05/15 06:22:53;;;;;;;3.63;1.60;;;12.50;65.60;;;12.34;56.80;96902.16;5023616;28;20064;-43
2021/05/15 06:25:21;;;;;;;5.97;2.20;;;12.60;65.10;;;12.41;56.72;96896.88;5025117;28;20388;-42
2021/05/15 06:27:48;;;;;;;2.70;1.10;;;12.80;65.20;;;12.43;56.77;96892.19;5025958;28;20057;-44
2021/05/15 06:30:16;;;;;;;2.35;1.20;;;12.80;64.30;;;12.56;57.00;96892.31;5026289;28;20057;-43
2021/05/15 06:32:44;;;;;;;2.28;1.58;;;12.90;65.10;;;12.59;56.36;96897.25;5025886;28;20061;-41
2021/05/15 06:35:11;;;;;;;2.20;1.20;;;13.00;64.40;;;12.58;56.19;96884.06;5024421;28;20049;-42
2021/05/15 06:37:38;;;;;;;1.10;1.00;;;13.00;63.90;;;12.60;55.56;96893.56;5024614;28;20038;-42
2021/05/15 06:40:07;;;;;;;1.40;1.30;;;13.00;63.50;;;12.52;55.90;96899.06;5025079;28;20049;-43
2021/05/15 06:42:35;;;;;;;3.42;2.03;;;13.10;63.20;;;12.60;55.76;96898.91;5026543;28;20364;-42
2021/05/15 06:45:05;;;;;;;5.40;3.10;;;13.10;63.30;;;12.62;55.58;96890.72;5024669;28;20270;-44
2021/05/15 06:47:32;;;;;;;1.10;0.93;;;13.00;63.50;;;12.46;55.42;96904.31;5025657;28;20037;-43
2021/05/15 06:50:00;;;;;;;1.48;1.08;;;13.10;62.70;;;12.53;55.74;96894.53;5007162;28;20065;-42
2021/05/15 06:52:27;;;;;;;1.35;1.10;;;13.10;63.20;;;12.53;56.01;96905.22;5024961;28;20053;-42
2021/05/15 06:54:54;;;;;;;2.50;1.90;;;13.00;63.20;;;12.66;55.85;96896.47;5023132;28;20055;-42
2021/05/15 06:57:21;;;;;;;2.45;1.63;;;13.00;63.80;;;12.77;56.00;96893.28;5024182;28;20222;-44
2021/05/15 06:59:48;;;;;;;2.95;1.55;;;13.10;64.00;;;12.79;55.51;96900.09;5040397;28;20048;-44
2021/05/15 07:02:15;;;;;;;0.93;0.80;;;13.10;63.60;;;12.82;55.39;96893.53;5039741;28;20057;-42
2021/05/15 07:04:42;;;;;;;1.85;0.93;;;13.10;63.50;;;12.72;55.55;96899.22;5024962;28;20045;-42
2021/05/15 07:07:09;;;;;;;2.30;1.05;;;13.10;62.80;;;12.70;55.57;96889.75;5023887;28;20590;-43
2021/05/15 07:09:36;;;;;;;1.48;0.93;;;13.10;63.10;;;12.73;55.42;96890.16;5024659;28;20057;-42
2021/05/15 07:12:03;;;;;;;1.52;1.13;;;13.10;63.20;;;12.81;54.85;96886.53;5024189;28;20041;-43
2021/05/15 07:14:30;;;;;;;1.85;0.90;;;13.10;63.10;;;12.84;55.09;96893.34;5024489;28;20060;-44
2021/05/15 07:16:57;;;;;;;0.70;0.70;;;13.20;62.90;;;12.88;54.57;96887.41;5023925;28;20251;-43
2021/05/15 07:19:25;;;;;;;1.50;1.30;;;13.40;62.50;;;12.99;55.11;96892.22;5023940;28;20327;-42
2021/05/15 07:21:52;;;;;;;1.15;0.90;;;13.50;62.70;;;13.06;55.05;96883.44;5024758;28;20060;-43
2021/05/15 07:24:19;;;;;;;1.15;0.98;;;13.50;62.50;;;13.06;54.81;96884.25;5023315;28;20061;-43
2021/05/15 07:26:46;;;;;;;1.73;0.90;;;13.50;62.10;;;13.13;54.67;96886.97;5023635;28;20033;-45
2021/05/15 07:29:13;;;;;;;2.33;1.23;;;13.50;61.60;;;13.13;54.40;96885.13;5023962;28;20068;-44
2021/05/15 07:31:40;;;;;;;1.88;1.10;;;13.50;61.70;;;13.08;54.58;96884.06;5024727;28;20047;-43
2021/05/15 07:34:07;;;;;;;4.65;2.58;;;13.50;62.00;;;13.11;54.46;96881.00;5024380;28;20785;-43
2021/05/15 07:36:34;;;;;;;1.80;1.10;;;13.50;61.80;;;13.14;54.59;96876.09;5024338;28;20033;-45
2021/05/15 07:39:02;;;;;;;4.43;1.10;;;13.50;62.00;;;13.03;53.78;96878.47;5024108;28;20051;-44
2021/05/15 07:41:30;;;;;;;1.85;1.20;;;13.60;60.90;;;13.12;54.19;96874.63;5023956;28;20049;-44
2021/05/15 07:43:57;;;;;;;1.13;1.08;;;13.60;61.30;;;13.19;54.06;96879.00;5026584;28;20041;-45
2021/05/15 07:46:24;;;;;;;1.42;0.88;;;13.70;61.50;;;13.20;53.67;96872.63;5025395;28;20323;-44
2021/05/15 07:48:51;;;;;;;1.25;1.15;;;13.70;60.60;;;13.22;53.70;96863.56;5024036;28;20049;-43
2021/05/15 07:51:22;;;;;;;2.05;0.80;;;13.70;60.70;;;13.31;53.85;96865.09;5006999;28;20354;-44
2021/05/15 07:53:51;;;;;;;6.63;1.27;;;13.80;60.80;;;13.29;53.10;96861.78;5026283;28;20850;-44
2021/05/15 07:56:18;;;;;;;1.25;0.82;;;13.80;60.30;;;13.35;53.98;96858.34;5023054;28;20251;-44
2021/05/15 07:58:46;;;;;;;3.33;1.15;;;13.90;60.50;;;13.26;53.37;96873.69;5022408;28;20034;-45
2021/05/15 08:01:14;;;;;;;1.27;1.00;;;13.70;60.30;;;13.37;53.75;96869.66;5022110;28;20052;-48
2021/05/15 08:03:41;;;;;;;1.15;1.05;;;13.70;61.30;;;13.38;52.98;96868.66;5025670;28;20052;-46
2021/05/15 08:06:10;;;;;;;1.75;1.00;;;13.80;60.60;;;13.37;53.41;96870.47;5031200;28;20060;-44
2021/05/15 08:08:39;;;;;;;1.48;1.38;;;13.80;60.60;;;13.39;53.52;96863.09;5021162;28;20048;-45
2021/05/15 08:11:10;;;;;;;1.88;1.10;;;13.90;60.20;;;13.46;52.90;96862.31;5042979;28;20044;-47
2021/05/15 08:13:39;;;;;;;1.13;1.02;;;13.90;60.10;;;13.36;52.76;96860.00;5058270;28;20143;-45
2021/05/15 08:16:06;;;;;;;1.80;1.02;;;13.90;59.40;;;13.50;52.96;96861.72;5042924;28;20041;-45
2021/05/15 08:18:33;;;;;;;1.27;0.98;;;13.80;60.60;;;13.43;52.37;96866.19;5043374;28;20372;-45
2021/05/15 08:21:00;;;;;;;1.40;1.00;;;13.80;59.50;;;13.54;52.87;96854.94;5043699;28;20033;-45
2021/05/15 08:23:27;;;;;;;1.33;0.93;;;13.90;60.30;;;13.64;52.93;96856.41;5042775;28;20041;-47
2021/05/15 08:25:54;;;;;;;1.35;1.00;;;14.00;60.20;;;13.70;52.62;96863.63;5043836;28;20284;-46
2021/05/15 08:28:23;;;;;;;1.17;1.00;;;14.20;60.00;;;13.75;52.72;96856.66;5044958;28;20123;-46
2021/05/15 08:30:50;;;;;;;2.92;1.45;;;14.30;59.80;;;13.78;52.25;96840.22;5043299;28;20038;-45
2021/05/15 08:33:17;;;;;;;1.35;1.00;;;14.30;59.10;;;13.72;51.66;96848.22;5044226;28;20055;-45
2021/05/15 08:35:44;;;;;;;2.92;1.10;;;14.30;58.60;;;13.80;52.39;96845.34;5044904;28;20037;-45
2021/05/15 08:38:11;;;;;;;2.05;1.17;;;14.40;59.10;;;13.90;52.54;96844.97;5044788;28;20345;-49
2021/05/15 08:40:38;;;;;;;1.70;1.10;;;14.40;59.10;;;13.97;52.22;96846.63;5044637;28;20053;-44
2021/05/15 08:43:07;;;;;;;1.48;0.93;;;14.50;57.90;;;13.97;51.54;96846.63;5044453;28;20364;-45
2021/05/15 08:45:35;;;;;;;2.03;1.40;;;14.40;58.60;;;14.07;52.03;96845.44;5044661;28;20040;-44
2021/05/15 08:48:04;;;;;;;2.10;1.30;;;14.50;59.10;;;14.13;51.03;96836.59;5044777;28;20033;-44
2021/05/15 08:50:32;;;;;;;1.75;1.00;;;14.50;57.20;;;14.16;51.31;96837.00;5043875;28;20046;-46
2021/05/15 08:53:00;;;;;;;1.45;0.98;;;14.50;58.20;;;14.19;50.90;96835.78;5043737;28;20045;-47
2021/05/15 08:55:31;;;;;;;3.40;1.75;;;14.60;58.10;;;14.22;50.42;96834.56;5044587;28;20029;-46
2021/05/15 08:58:00;;;;;;;1.05;0.90;;;14.80;57.60;;;14.25;50.24;96831.44;5044407;28;20033;-48
2021/05/15 09:00:35;;;;;;;1.60;1.40;;;14.90;56.50;;;14.26;48.88;96828.56;5059832;28;20245;-44
2021/05/15 09:03:07;;;;;;;1.80;1.08;;;15.00;55.40;;;14.44;50.19;96825.28;5043233;28;20348;-47
2021/05/15 09:05:39;;;;;;;1.40;1.10;;;15.10;56.60;;;14.56;49.93;96826.38;5041665;28;20057;-45
2021/05/15 09:08:11;;;;;;;1.33;1.10;;;15.20;56.40;;;14.52;49.07;96829.59;5034190;28;20049;-46
2021/05/15 09:10:43;;;;;;;2.78;1.42;;;15.30;55.50;;;14.51;49.58;96818.09;5024007;28;20042;-44
2021/05/15 09:13:23;;;;;;;2.88;1.42;;;15.30;55.60;;;14.53;48.42;96817.88;5023184;28;20042;-45
2021/05/15 09:16:04;;;;;;;1.13;1.02;;;15.30;54.20;;;14.60;47.69;96815.22;5024302;28;20044;-45
2021/05/15 09:18:40;;;;;;;3.25;1.05;;;15.40;53.90;;;14.75;48.73;96816.66;5024348;28;20045;-47
2021/05/15 09:21:20;;;;;;;1.15;1.05;;;15.40;54.00;;;14.52;47.82;96810.88;5024290;28;20042;-47
2021/05/15 09:23:50;;;;;;;2.17;1.40;;;15.50;53.60;;;14.62;48.85;96808.66;5023648;28;20072;-44
2021/05/15 09:26:24;;;;;;;1.95;1.13;;;15.50;54.70;;;14.72;48.71;96809.03;5024158;28;20052;-44
2021/05/15 09:28:55;;;;;;;0.90;0.82;;;15.50;55.00;;;14.73;47.21;96808.03;5023590;28;20344;-45
2021/05/15 09:31:40;;;;;;;1.13;1.02;;;15.60;53.40;;;14.87;47.62;96811.50;5023617;28;20369;-45
2021/05/15 09:34:09;;;;;;;1.23;1.13;;;15.60;54.00;;;14.78;47.18;96802.03;5024069;28;20041;-44
2021/05/15 09:36:46;;;;;;;0.85;0.70;;;15.70;52.60;;;14.88;47.57;96804.28;5006752;28;20050;-46
2021/05/15 09:39:21;;;;;;;1.90;0.90;;;15.80;53.30;;;15.04;47.57;96800.31;5024009;28;20050;-45
2021/05/15 09:41:58;;;;;;;1.17;1.02;;;15.80;53.30;;;15.16;47.28;96799.47;5021556;28;20050;-46
2021/05/15 09:44:36;;;;;;;0.80;0.80;;;15.90;53.50;;;15.31;47.32;96799.19;5024860;28;20050;-45
2021/05/15 09:47:05;;;;;;;1.25;1.15;;;15.90;54.00;;;15.28;46.60;96785.41;5023890;28;20056;-45
2021/05/15 09:49:37;;;;;;;1.27;1.00;;;16.10;51.60;;;15.26;46.84;96793.66;5005385;28;20053;-44
2021/05/15 09:52:08;;;;;;;2.72;1.60;;;16.00;52.40;;;15.13;45.47;96791.03;5023127;28;20046;-44
2021/05/15 09:54:43;;;;;;;2.50;1.60;;;16.10;51.50;;;15.20;46.03;96785.63;5023784;28;20052;-44
2021/05/15 09:57:17;;;;;;;2.88;1.80;;;16.00;51.20;;;15.16;45.94;96780.72;5021493;28;20242;-46
2021/05/15 09:59:49;;;;;;;2.08;1.77;;;15.80;52.10;;;15.28;46.40;96780.06;5034154;28;20054;-45
2021/05/15 10:02:20;;;;;;;2.25;1.33;;;15.90;52.40;;;15.21;46.14;96773.88;5042214;28;20046;-44
2021/05/15 10:04:53;;;;;;;13.20;7.13;;;15.90;51.60;;;15.26;45.61;96768.72;5042952;28;20047;-47
2021/05/15 10:07:26;;;;;;;3.17;1.13;;;15.90;51.60;;;15.28;44.30;96764.78;5039358;28;20051;-45
2021/05/15 10:10:00;;;;;;;5.07;2.90;;;16.00;50.40;;;15.39;44.45;96765.97;5008927;28;20228;-46
2021/05/15 10:12:30;;;;;;;1.70;1.10;;;16.00;50.30;;;15.31;44.45;96758.16;5022449;28;20044;-44
2021/05/15 10:14:59;;;;;;;5.00;1.80;;;16.10;49.30;;;15.37;43.85;96768.03;5023185;28;20046;-45
2021/05/15 10:17:28;;;;;;;2.05;1.13;;;16.00;49.30;;;15.31;43.78;96755.47;5023168;28;20052;-47
2021/05/15 10:19:56;;;;;;;1.92;0.98;;;16.10;49.80;;;15.45;44.32;96745.50;5023284;28;20050;-46
2021/05/15 10:22:24;;;;;;;3.33;2.08;;;16.20;50.20;;;15.41;43.67;96761.22;5037694;28;20054;-45
2021/05/15 10:24:54;;;;;;;1.40;1.10;;;16.20;48.20;;;15.49;44.34;96738.69;5022108;28;20060;-44
2021/05/15 10:27:23;;;;;;;1.52;1.05;;;16.30;49.50;;;15.61;43.82;96734.28;5005284;28;20049;-46